createdAt,value
2017-05-05T00:02:26.015Z,19.00
2017-05-05T00:04:52.709Z,19.00
2017-05-05T00:07:19.419Z,19.00
2017-05-05T00:09:46.099Z,19.00
2017-05-05T00:12:12.804Z,19.00
2017-05-05T00:14:39.481Z,19.00
2017-05-05T00:17:06.169Z,19.00
2017-05-05T00:19:32.846Z,19.00
2017-05-05T00:21:59.538Z,19.00
2017-05-05T00:24:26.223Z,19.00
2017-05-05T00:26:52.917Z,19.00
2017-05-05T00:29:19.595Z,19.00
2017-05-05T00:31:46.274Z,19.00
2017-05-05T00:34:12.966Z,19.00
2017-05-05T00:36:39.657Z,19.00
2017-05-05T00:39:06.346Z,19.00
2017-05-05T00:41:33.037Z,19.00
2017-05-05T00:43:59.722Z,19.00
2017-05-05T00:46:26.405Z,19.00
2017-05-05T00:48:53.854Z,19.00
2017-05-05T00:51:21.311Z,19.00
2017-05-05T00:53:47.999Z,19.00
2017-05-05T00:56:14.674Z,19.00
2017-05-05T00:58:41.374Z,19.00
2017-05-05T01:01:08.083Z,19.00
2017-05-05T01:03:35.526Z,19.00
2017-05-05T01:06:02.222Z,19.00
2017-05-05T01:08:28.894Z,19.00
2017-05-05T01:10:55.589Z,19.00
2017-05-05T01:13:22.298Z,19.00
2017-05-05T01:15:49.725Z,19.00
2017-05-05T01:18:16.417Z,19.00
2017-05-05T01:20:43.106Z,19.00
2017-05-05T01:23:09.773Z,19.00
2017-05-05T01:25:36.458Z,19.00
2017-05-05T01:28:03.129Z,19.00
2017-05-05T01:30:29.819Z,19.00
2017-05-05T01:32:56.497Z,19.00
2017-05-05T01:35:23.194Z,19.00
2017-05-05T01:37:49.958Z,19.00
2017-05-05T01:40:16.637Z,19.00
2017-05-05T01:42:43.316Z,19.00
2017-05-05T01:45:10.032Z,19.00
2017-05-05T01:47:36.738Z,19.00
2017-05-05T01:50:03.440Z,19.00
2017-05-05T01:52:30.137Z,19.00
2017-05-05T01:54:57.638Z,18.90
2017-05-05T01:57:24.329Z,19.00
2017-05-05T01:59:50.997Z,19.00
2017-05-05T02:02:17.748Z,19.00
2017-05-05T02:04:44.429Z,19.00
2017-05-05T02:07:11.153Z,19.00
2017-05-05T02:09:37.967Z,19.00
2017-05-05T02:12:04.658Z,19.00
2017-05-05T02:14:32.081Z,19.00
2017-05-05T02:16:58.789Z,19.00
2017-05-05T02:19:25.493Z,19.00
2017-05-05T02:21:52.954Z,19.00
2017-05-05T02:24:20.398Z,19.00
2017-05-05T02:26:47.069Z,19.00
2017-05-05T02:29:13.762Z,19.00
2017-05-05T02:31:40.478Z,19.00
2017-05-05T02:34:07.181Z,19.00
2017-05-05T02:36:33.865Z,19.00
2017-05-05T02:39:00.550Z,19.00
2017-05-05T02:41:27.986Z,19.00
2017-05-05T02:43:54.694Z,19.00
2017-05-05T02:46:21.383Z,19.00
2017-05-05T02:48:48.870Z,19.00
2017-05-05T02:51:15.607Z,19.00
2017-05-05T02:53:42.299Z,19.00
2017-05-05T02:56:09.024Z,19.00
2017-05-05T02:58:35.709Z,19.00
2017-05-05T03:01:02.413Z,19.00
2017-05-05T03:03:29.082Z,18.90
2017-05-05T03:05:56.505Z,18.90
2017-05-05T03:08:23.186Z,19.00
2017-05-05T03:10:49.974Z,18.90
2017-05-05T03:13:16.646Z,19.00
2017-05-05T03:15:44.064Z,18.90
2017-05-05T03:18:10.749Z,19.00
2017-05-05T03:20:37.421Z,19.00
2017-05-05T03:23:04.117Z,19.00
2017-05-05T03:25:31.531Z,18.90
2017-05-05T03:27:58.269Z,19.00
2017-05-05T03:30:24.953Z,19.00
2017-05-05T03:32:51.646Z,19.00
2017-05-05T03:35:18.393Z,19.00
2017-05-05T03:37:45.125Z,19.00
2017-05-05T03:40:11.803Z,19.00
2017-05-05T03:42:39.249Z,18.90
2017-05-05T03:45:05.919Z,19.00
2017-05-05T03:47:32.596Z,19.00
2017-05-05T03:49:59.281Z,18.90
2017-05-05T03:52:25.977Z,19.00
2017-05-05T03:54:52.663Z,19.00
2017-05-05T03:57:20.112Z,18.90
2017-05-05T03:59:46.829Z,19.00
2017-05-05T04:02:13.509Z,19.00
2017-05-05T04:04:40.225Z,19.00
2017-05-05T04:07:06.933Z,18.90
2017-05-05T04:09:33.635Z,19.00
2017-05-05T04:12:00.329Z,19.00
2017-05-05T04:14:27.021Z,19.00
2017-05-05T04:16:53.718Z,19.00
2017-05-05T04:19:20.394Z,19.00
2017-05-05T04:21:47.080Z,19.00
2017-05-05T04:24:13.757Z,19.00
2017-05-05T04:26:40.467Z,19.00
2017-05-05T04:29:07.168Z,19.00
2017-05-05T04:31:33.856Z,19.00
2017-05-05T04:34:00.541Z,19.00
2017-05-05T04:36:27.241Z,19.00
2017-05-05T04:38:54.685Z,19.00
2017-05-05T04:41:21.377Z,19.00
2017-05-05T04:43:48.073Z,19.00
2017-05-05T04:46:15.545Z,19.00
2017-05-05T04:48:42.233Z,19.00
2017-05-05T04:51:08.930Z,19.00
2017-05-05T04:53:35.653Z,19.00
2017-05-05T04:56:02.342Z,19.00
2017-05-05T04:58:29.037Z,19.10
2017-05-05T05:00:56.459Z,19.00
2017-05-05T05:03:23.140Z,19.00
2017-05-05T05:05:49.818Z,19.00
2017-05-05T05:08:16.509Z,19.00
2017-05-05T05:10:43.192Z,19.00
2017-05-05T05:13:09.883Z,19.00
2017-05-05T05:15:36.619Z,19.00
2017-05-05T05:18:04.044Z,19.00
2017-05-05T05:20:30.742Z,19.00
2017-05-05T05:22:57.422Z,19.00
2017-05-05T05:25:24.162Z,19.10
2017-05-05T05:27:50.849Z,19.00
2017-05-05T05:30:17.554Z,19.00
2017-05-05T05:32:44.253Z,19.10
2017-05-05T05:35:10.945Z,19.10
2017-05-05T05:37:38.371Z,19.00
2017-05-05T05:40:05.069Z,19.10
2017-05-05T05:42:31.795Z,19.10
2017-05-05T05:44:58.507Z,19.10
2017-05-05T05:47:25.210Z,19.10
2017-05-05T05:49:51.894Z,19.10
2017-05-05T05:52:19.345Z,19.00
2017-05-05T05:54:46.767Z,19.00
2017-05-05T05:57:13.453Z,19.10
2017-05-05T05:59:40.885Z,19.10
2017-05-05T06:02:07.609Z,19.10
2017-05-05T06:04:34.317Z,19.10
2017-05-05T06:07:00.991Z,19.10
2017-05-05T06:09:27.676Z,19.10
2017-05-05T06:11:54.367Z,19.10
2017-05-05T06:14:21.073Z,19.20
2017-05-05T06:16:47.774Z,19.20
2017-05-05T06:19:14.497Z,19.20
2017-05-05T06:21:41.164Z,19.20
2017-05-05T06:24:08.587Z,19.20
2017-05-05T06:26:35.273Z,19.20
2017-05-05T06:29:02.130Z,19.20
2017-05-05T06:31:28.811Z,19.20
2017-05-05T06:33:55.516Z,19.20
2017-05-05T06:36:22.263Z,19.20
2017-05-05T06:38:48.974Z,19.20
2017-05-05T06:41:15.663Z,19.20
2017-05-05T06:43:42.354Z,19.20
2017-05-05T06:46:09.026Z,19.20
2017-05-05T06:48:35.786Z,19.20
2017-05-05T06:51:02.513Z,19.20
2017-05-05T06:53:29.227Z,19.20
2017-05-05T06:55:55.923Z,19.30
2017-05-05T06:58:23.361Z,19.20
2017-05-05T07:00:50.044Z,19.30
2017-05-05T07:03:16.733Z,19.30
2017-05-05T07:05:43.409Z,19.30
2017-05-05T07:08:10.116Z,19.30
2017-05-05T07:10:36.806Z,19.30
2017-05-05T07:13:03.488Z,19.30
2017-05-05T07:15:30.209Z,19.30
2017-05-05T07:17:56.896Z,19.40
2017-05-05T07:20:23.585Z,19.40
2017-05-05T07:22:50.305Z,19.40
2017-05-05T07:25:17.003Z,19.40
2017-05-05T07:27:43.694Z,19.40
2017-05-05T07:30:10.437Z,19.40
2017-05-05T07:32:37.109Z,19.50
2017-05-05T07:35:03.812Z,19.50
2017-05-05T07:37:30.494Z,19.50
2017-05-05T07:39:57.192Z,19.50
2017-05-05T07:42:23.861Z,19.50
2017-05-05T07:44:50.629Z,19.50
2017-05-05T07:47:17.331Z,19.60
2017-05-05T07:49:44.021Z,19.60
2017-05-05T07:52:10.796Z,19.60
2017-05-05T07:54:37.512Z,19.60
2017-05-05T07:57:04.339Z,19.70
2017-05-05T07:59:31.030Z,19.80
2017-05-05T08:01:57.729Z,19.90
2017-05-05T08:04:24.448Z,19.90
2017-05-05T08:06:51.197Z,19.90
2017-05-05T08:09:17.966Z,19.90
2017-05-05T08:11:44.689Z,20.00
2017-05-05T08:14:11.377Z,19.90
2017-05-05T08:16:38.077Z,19.90
2017-05-05T08:19:04.826Z,19.90
2017-05-05T08:21:31.525Z,19.90
2017-05-05T08:23:59.026Z,20.00
2017-05-05T08:26:25.732Z,19.90
2017-05-05T08:28:52.548Z,19.90
2017-05-05T08:31:19.243Z,19.90
2017-05-05T08:33:45.930Z,19.90
2017-05-05T08:36:12.610Z,19.90
2017-05-05T08:38:39.301Z,19.90
2017-05-05T08:41:06.010Z,19.90
2017-05-05T08:43:32.698Z,19.90
2017-05-05T08:46:00.137Z,19.80
2017-05-05T08:48:26.838Z,19.90
2017-05-05T08:50:53.561Z,19.90
2017-05-05T08:53:20.280Z,19.90
2017-05-05T08:55:46.974Z,19.90
2017-05-05T08:58:13.661Z,20.00
2017-05-05T09:00:40.397Z,20.10
2017-05-05T09:03:07.078Z,20.10
2017-05-05T09:05:33.795Z,20.20
2017-05-05T09:08:00.485Z,20.30
2017-05-05T09:10:27.196Z,20.40
2017-05-05T09:12:53.866Z,20.40
2017-05-05T09:15:20.630Z,20.40
2017-05-05T09:17:48.083Z,20.20
2017-05-05T09:20:15.521Z,20.20
2017-05-05T09:22:42.205Z,20.20
2017-05-05T09:25:08.989Z,20.20
2017-05-05T09:27:35.685Z,20.10
2017-05-05T09:30:02.399Z,20.20
2017-05-05T09:32:29.073Z,20.10
2017-05-05T09:34:55.854Z,20.10
2017-05-05T09:37:22.521Z,20.10
2017-05-05T09:39:49.198Z,20.10
2017-05-05T09:42:15.893Z,20.10
2017-05-05T09:44:42.605Z,20.10
2017-05-05T09:47:09.504Z,20.20
2017-05-05T09:49:36.233Z,20.20
2017-05-05T09:52:02.921Z,20.30
2017-05-05T09:54:29.621Z,20.30
2017-05-05T09:56:56.319Z,20.40
2017-05-05T09:59:23.040Z,20.50
2017-05-05T10:01:49.757Z,20.60
2017-05-05T10:04:16.634Z,20.60
2017-05-05T10:06:44.086Z,20.60
2017-05-05T10:09:10.823Z,20.70
2017-05-05T10:11:37.518Z,20.80
2017-05-05T10:14:04.197Z,20.80
2017-05-05T10:16:30.910Z,20.80
2017-05-05T10:18:57.614Z,20.90
2017-05-05T10:21:25.071Z,20.90
2017-05-05T10:23:52.481Z,21.00
2017-05-05T10:26:19.173Z,21.10
2017-05-05T10:28:45.907Z,21.10
2017-05-05T10:31:12.788Z,21.10
2017-05-05T10:33:39.488Z,21.00
2017-05-05T10:36:06.961Z,21.00
2017-05-05T10:38:33.642Z,21.00
2017-05-05T10:41:00.343Z,21.00
2017-05-05T10:43:27.041Z,21.00
2017-05-05T10:45:53.709Z,21.10
2017-05-05T10:48:20.423Z,21.10
2017-05-05T10:50:47.089Z,21.20
2017-05-05T10:53:13.799Z,21.20
2017-05-05T10:55:40.462Z,21.20
2017-05-05T10:58:07.889Z,21.20
2017-05-05T11:00:34.930Z,21.20
2017-05-05T11:03:01.618Z,21.30
2017-05-05T11:05:28.293Z,21.30
2017-05-05T11:07:54.966Z,21.30
2017-05-05T11:10:21.654Z,21.40
2017-05-05T11:12:48.362Z,21.40
2017-05-05T11:15:15.066Z,21.40
2017-05-05T11:17:41.749Z,21.40
2017-05-05T11:20:08.430Z,21.30
2017-05-05T11:22:35.129Z,21.30
2017-05-05T11:25:01.823Z,21.30
2017-05-05T11:27:28.490Z,21.40
2017-05-05T11:29:55.926Z,21.40
2017-05-05T11:32:22.601Z,21.40
2017-05-05T11:34:49.349Z,21.40
2017-05-05T11:37:16.089Z,21.40
2017-05-05T11:39:42.854Z,21.50
2017-05-05T11:42:09.589Z,21.50
2017-05-05T11:44:36.308Z,21.50
2017-05-05T11:47:03.206Z,21.50
2017-05-05T11:49:30.009Z,21.50
2017-05-05T11:51:56.689Z,21.60
2017-05-05T11:54:23.567Z,21.60
2017-05-05T11:56:50.261Z,21.50
2017-05-05T11:59:16.930Z,21.50
2017-05-05T12:01:44.413Z,21.50
2017-05-05T12:04:11.114Z,21.40
2017-05-05T12:06:37.797Z,21.40
2017-05-05T12:09:04.505Z,21.50
2017-05-05T12:11:31.233Z,21.50
2017-05-05T12:13:57.916Z,21.50
2017-05-05T12:16:24.613Z,21.50
2017-05-05T12:18:52.054Z,21.40
2017-05-05T12:21:18.859Z,21.40
2017-05-05T12:23:45.590Z,21.40
2017-05-05T12:26:12.266Z,21.40
2017-05-05T12:28:39.065Z,21.40
2017-05-05T12:31:05.733Z,21.40
2017-05-05T12:33:32.413Z,21.30
2017-05-05T12:35:59.866Z,21.30
2017-05-05T12:38:26.573Z,21.20
2017-05-05T12:40:53.359Z,21.20
2017-05-05T12:43:20.082Z,21.20
2017-05-05T12:45:47.498Z,21.20
2017-05-05T12:48:14.266Z,21.20
2017-05-05T12:50:40.941Z,21.20
2017-05-05T12:53:07.645Z,21.10
2017-05-05T12:55:35.069Z,21.10
2017-05-05T12:58:01.758Z,21.10
2017-05-05T13:00:29.185Z,21.10
2017-05-05T13:02:55.883Z,21.10
2017-05-05T13:05:22.562Z,21.10
2017-05-05T13:07:49.257Z,21.10
2017-05-05T13:10:15.945Z,21.00
2017-05-05T13:12:42.653Z,21.10
2017-05-05T13:15:09.322Z,21.10
2017-05-05T13:17:36.013Z,21.10
2017-05-05T13:20:02.703Z,21.10
2017-05-05T13:22:29.373Z,21.10
2017-05-05T13:24:56.100Z,21.10
2017-05-05T13:27:22.803Z,21.10
2017-05-05T13:29:49.526Z,21.10
2017-05-05T13:32:16.209Z,21.10
2017-05-05T13:34:42.894Z,21.10
2017-05-05T13:37:09.561Z,21.10
2017-05-05T13:39:36.246Z,21.10
2017-05-05T13:42:03.062Z,21.10
2017-05-05T13:44:29.856Z,21.00
2017-05-05T13:46:56.553Z,21.00
2017-05-05T13:49:24.213Z,20.90
2017-05-05T13:51:51.636Z,20.90
2017-05-05T13:54:18.345Z,20.90
2017-05-05T13:56:45.020Z,20.90
2017-05-05T13:59:11.723Z,20.80
2017-05-05T14:01:38.402Z,20.80
2017-05-05T14:04:05.198Z,20.80
2017-05-05T14:06:31.931Z,20.80
2017-05-05T14:08:58.607Z,20.80
2017-05-05T14:11:25.327Z,20.80
2017-05-05T14:13:52.012Z,20.70
2017-05-05T14:16:19.436Z,20.70
2017-05-05T14:18:46.105Z,20.70
2017-05-05T14:21:13.534Z,20.70
2017-05-05T14:23:40.239Z,20.80
2017-05-05T14:26:06.953Z,20.80
2017-05-05T14:28:33.633Z,20.90
2017-05-05T14:31:00.373Z,20.90
2017-05-05T14:33:27.041Z,21.00
2017-05-05T14:35:53.809Z,21.00
2017-05-05T14:38:20.518Z,21.10
2017-05-05T14:40:47.201Z,21.00
2017-05-05T14:43:13.925Z,21.10
2017-05-05T14:45:41.357Z,21.10
2017-05-05T14:48:08.045Z,21.10
2017-05-05T14:50:34.729Z,21.10
2017-05-05T14:53:01.434Z,21.10
2017-05-05T14:55:28.134Z,21.10
2017-05-05T14:57:54.838Z,21.10
2017-05-05T15:00:21.532Z,21.10
2017-05-05T15:02:48.224Z,21.20
2017-05-05T15:05:14.901Z,21.10
2017-05-05T15:07:41.603Z,21.20
2017-05-05T15:10:08.282Z,21.20
2017-05-05T15:12:34.987Z,21.20
2017-05-05T15:15:01.676Z,21.20
2017-05-05T15:17:28.357Z,21.20
2017-05-05T15:19:55.056Z,21.20
2017-05-05T15:22:21.798Z,21.20
2017-05-05T15:24:48.481Z,21.20
2017-05-05T15:27:15.153Z,21.20
2017-05-05T15:29:41.838Z,21.20
2017-05-05T15:32:08.501Z,21.20
2017-05-05T15:34:35.194Z,21.20
2017-05-05T15:37:01.875Z,21.20
2017-05-05T15:39:28.586Z,21.20
2017-05-05T15:41:55.314Z,21.10
2017-05-05T15:44:22.035Z,21.10
2017-05-05T15:46:48.721Z,21.10
2017-05-05T15:51:48.745Z,21.00
2017-05-05T15:54:15.469Z,21.10
2017-05-05T15:56:42.143Z,21.10
2017-05-05T15:59:08.845Z,21.00
2017-05-05T16:01:35.523Z,21.00
2017-05-05T16:04:02.226Z,20.90
2017-05-05T16:06:28.967Z,20.90
2017-05-05T16:08:55.669Z,20.90
2017-05-05T16:11:22.350Z,20.90
2017-05-05T16:13:49.034Z,20.90
2017-05-05T16:16:15.725Z,20.80
2017-05-05T16:18:42.421Z,20.80
2017-05-05T16:21:09.860Z,20.70
2017-05-05T16:23:36.565Z,20.80
2017-05-05T16:26:03.249Z,20.70
2017-05-05T16:28:30.664Z,20.70
2017-05-05T16:30:57.354Z,20.70
2017-05-05T16:33:24.025Z,20.70
2017-05-05T16:35:50.725Z,20.70
2017-05-05T16:38:17.422Z,20.60
2017-05-05T16:40:44.137Z,20.60
2017-05-05T16:43:10.818Z,20.60
2017-05-05T16:45:37.501Z,20.60
2017-05-05T16:48:04.183Z,20.60
2017-05-05T16:50:30.878Z,20.60
2017-05-05T16:52:57.562Z,20.50
2017-05-05T16:55:24.337Z,20.40
2017-05-05T16:57:51.084Z,20.50
2017-05-05T17:00:17.877Z,20.50
2017-05-05T17:02:44.573Z,20.40
2017-05-05T17:05:11.313Z,20.40
2017-05-05T17:07:38.005Z,20.40
2017-05-05T17:10:04.695Z,20.40
2017-05-05T17:12:31.446Z,20.40
2017-05-05T17:14:58.121Z,20.40
2017-05-05T17:17:24.828Z,20.40
2017-05-05T17:19:51.498Z,20.30
2017-05-05T17:22:18.198Z,20.30
2017-05-05T17:24:44.873Z,20.30
2017-05-05T17:27:11.585Z,20.30
2017-05-05T17:29:38.269Z,20.30
2017-05-05T17:32:04.985Z,20.20
2017-05-05T17:34:31.686Z,20.30
2017-05-05T17:36:58.373Z,20.30
2017-05-05T17:39:25.112Z,20.20
2017-05-05T17:41:52.558Z,20.10
2017-05-05T17:44:19.263Z,20.20
2017-05-05T17:46:46.011Z,20.20
2017-05-05T17:49:12.686Z,20.20
2017-05-05T17:51:39.410Z,20.10
2017-05-05T17:54:06.134Z,20.10
2017-05-05T17:56:32.842Z,20.10
2017-05-05T17:58:59.550Z,20.00
2017-05-05T18:01:26.320Z,20.00
2017-05-05T18:03:53.066Z,20.00
2017-05-05T18:06:19.750Z,20.00
2017-05-05T18:08:46.445Z,20.00
2017-05-05T18:11:13.138Z,19.90
2017-05-05T18:13:39.838Z,19.90
2017-05-05T18:16:06.694Z,19.90
2017-05-05T18:18:33.389Z,19.80
2017-05-05T18:21:00.858Z,19.80
2017-05-05T18:23:27.561Z,19.80
2017-05-05T18:25:54.242Z,19.80
2017-05-05T18:28:20.935Z,19.80
2017-05-05T18:30:47.618Z,19.80
2017-05-05T18:33:14.321Z,19.70
2017-05-05T18:35:41.810Z,19.70
2017-05-05T18:38:08.501Z,19.70
2017-05-05T18:40:35.223Z,19.70
2017-05-05T18:43:01.909Z,19.70
2017-05-05T18:45:28.605Z,19.70
2017-05-05T18:47:55.305Z,19.70
2017-05-05T18:50:22.756Z,19.60
2017-05-05T18:52:50.177Z,19.60
2017-05-05T18:55:16.877Z,19.60
2017-05-05T18:57:43.557Z,19.60
2017-05-05T19:00:10.270Z,19.60
2017-05-05T19:02:36.971Z,19.60
2017-05-05T19:05:04.421Z,19.50
2017-05-05T19:07:31.862Z,19.50
2017-05-05T19:09:58.555Z,19.50
2017-05-05T19:12:25.248Z,19.50
2017-05-05T19:14:51.966Z,19.50
2017-05-05T19:17:18.638Z,19.50
2017-05-05T19:19:46.094Z,19.50
2017-05-05T19:22:12.809Z,19.50
2017-05-05T19:24:39.506Z,19.50
2017-05-05T19:27:06.253Z,19.50
2017-05-05T19:29:32.933Z,19.50
2017-05-05T19:31:59.621Z,19.50
2017-05-05T19:34:26.328Z,19.50
2017-05-05T19:36:53.220Z,19.50
2017-05-05T19:39:20.038Z,19.50
2017-05-05T19:41:46.722Z,19.40
2017-05-05T19:44:13.414Z,19.40
2017-05-05T19:46:40.165Z,19.40
2017-05-05T19:49:06.875Z,19.40
2017-05-05T19:51:33.735Z,19.40
2017-05-05T19:54:00.526Z,19.40
2017-05-05T19:56:27.292Z,19.40
2017-05-05T19:58:54.727Z,19.40
2017-05-05T20:01:21.421Z,19.40
2017-05-05T20:03:48.110Z,19.40
2017-05-05T20:06:14.897Z,19.40
2017-05-05T20:08:41.594Z,19.30
2017-05-05T20:11:08.283Z,19.30
2017-05-05T20:13:34.986Z,19.30
2017-05-05T20:16:02.397Z,19.30
2017-05-05T20:18:29.134Z,19.30
2017-05-05T20:20:55.853Z,19.30
2017-05-05T20:23:22.552Z,19.30
2017-05-05T20:25:49.237Z,19.40
2017-05-05T20:28:15.933Z,19.30
2017-05-05T20:30:42.601Z,19.30
2017-05-05T20:33:09.312Z,19.30
2017-05-05T20:35:36.745Z,19.30
2017-05-05T20:38:03.432Z,19.30
2017-05-05T20:40:30.176Z,19.30
2017-05-05T20:42:56.862Z,19.30
2017-05-05T20:45:23.549Z,19.30
2017-05-05T20:47:50.241Z,19.30
2017-05-05T20:50:16.925Z,19.30
2017-05-05T20:52:43.606Z,19.30
2017-05-05T20:55:10.303Z,19.30
2017-05-05T20:57:36.978Z,19.20
2017-05-05T21:00:03.695Z,19.20
2017-05-05T21:02:30.385Z,19.30
2017-05-05T21:04:57.810Z,19.20
2017-05-05T21:07:24.491Z,19.30
2017-05-05T21:09:51.941Z,19.20
2017-05-05T21:12:19.377Z,19.20
2017-05-05T21:14:46.118Z,19.20
2017-05-05T21:17:12.895Z,19.20
2017-05-05T21:19:39.566Z,19.20
2017-05-05T21:22:06.262Z,19.20
2017-05-05T21:24:32.937Z,19.20
2017-05-05T21:26:59.633Z,19.20
2017-05-05T21:29:27.050Z,19.10
2017-05-05T21:31:53.733Z,19.20
2017-05-05T21:34:21.147Z,19.20
2017-05-05T21:36:47.901Z,19.20
2017-05-05T21:39:14.578Z,19.20
2017-05-05T21:41:41.274Z,19.20
2017-05-05T21:44:08.032Z,19.20
2017-05-05T21:46:34.763Z,19.20
2017-05-05T21:49:01.445Z,19.20
2017-05-05T21:51:28.235Z,19.20
2017-05-05T21:53:54.945Z,19.20
2017-05-05T21:56:21.652Z,19.20
2017-05-05T21:58:48.403Z,19.20
2017-05-05T22:01:15.082Z,19.20
2017-05-05T22:03:41.899Z,19.20
2017-05-05T22:06:08.670Z,19.20
2017-05-05T22:08:35.455Z,19.20
2017-05-05T22:11:02.137Z,19.20
2017-05-05T22:13:28.846Z,19.30
2017-05-05T22:15:55.581Z,19.30
2017-05-05T22:18:22.265Z,19.20
2017-05-05T22:20:48.950Z,19.20
2017-05-05T22:23:15.687Z,19.30
2017-05-05T22:25:42.378Z,19.30
2017-05-05T22:28:09.077Z,19.20
2017-05-05T22:30:35.777Z,19.20
2017-05-05T22:33:02.475Z,19.20
2017-05-05T22:35:29.161Z,19.30
2017-05-05T22:37:56.613Z,19.20
2017-05-05T22:40:24.033Z,19.20
2017-05-05T22:42:50.746Z,19.20
2017-05-05T22:45:17.426Z,19.20
2017-05-05T22:47:44.102Z,19.20
2017-05-05T22:50:10.840Z,19.20
2017-05-05T22:52:38.267Z,19.20
2017-05-05T22:55:04.979Z,19.20
2017-05-05T22:57:31.679Z,19.20
2017-05-05T22:59:58.371Z,19.20
2017-05-05T23:02:25.053Z,19.20
2017-05-05T23:04:51.742Z,19.20
2017-05-05T23:07:18.429Z,19.20
2017-05-05T23:09:45.889Z,19.20
2017-05-05T23:12:13.314Z,19.20
2017-05-05T23:14:40.003Z,19.30
2017-05-05T23:17:06.686Z,19.30
2017-05-05T23:19:33.357Z,19.30
2017-05-05T23:22:00.049Z,19.20
2017-05-05T23:24:26.725Z,19.20
2017-05-05T23:26:53.429Z,19.20
2017-05-05T23:29:20.106Z,19.20
2017-05-05T23:31:47.546Z,19.20
2017-05-05T23:34:14.230Z,19.20
2017-05-05T23:36:40.912Z,19.20
2017-05-05T23:39:07.588Z,19.20
2017-05-05T23:41:34.295Z,19.20
2017-05-05T23:44:00.995Z,19.20
2017-05-05T23:46:27.685Z,19.20
2017-05-05T23:48:54.378Z,19.20
2017-05-05T23:51:21.078Z,19.20
2017-05-05T23:53:47.764Z,19.20
2017-05-05T23:56:14.477Z,19.20
2017-05-05T23:58:41.161Z,19.20
